createdAt,value
2023-05-24T00:02:26.645Z,16.03
2023-05-24T00:05:54.387Z,16.08
2023-05-24T00:09:04.203Z,16.13
2023-05-24T00:12:32.043Z,16.15
2023-05-24T00:15:10.124Z,16.16
2023-05-24T00:17:59.774Z,16.20
2023-05-24T00:21:06.171Z,16.20
2023-05-24T00:24:16.337Z,16.27
2023-05-24T00:27:26.306Z,16.33
2023-05-24T00:29:58.415Z,16.39
2023-05-24T00:33:06.179Z,16.41
2023-05-24T00:36:34.359Z,16.45
2023-05-24T00:39:44.352Z,16.54
2023-05-24T00:42:53.805Z,16.64
2023-05-24T00:46:03.608Z,16.73
2023-05-24T00:49:15.362Z,16.79
2023-05-24T00:52:31.256Z,16.81
2023-05-24T00:55:58.956Z,16.82
2023-05-24T00:58:40.114Z,16.83
2023-05-24T01:01:48.477Z,16.81
2023-05-24T01:04:17.730Z,16.80
2023-05-24T01:07:05.639Z,16.79
2023-05-24T01:09:57.719Z,16.79
2023-05-24T01:13:09.758Z,16.79
2023-05-24T01:16:02.064Z,16.77
2023-05-24T01:19:11.846Z,16.75
2023-05-24T01:22:23.624Z,16.73
2023-05-24T01:25:15.979Z,16.72
2023-05-24T01:28:24.646Z,16.72
2023-05-24T01:31:48.619Z,16.73
2023-05-24T01:34:56.501Z,16.74
2023-05-24T01:37:46.519Z,16.73
2023-05-24T01:41:15.574Z,16.68
2023-05-24T01:44:13.027Z,16.65
2023-05-24T01:47:41.541Z,16.57
2023-05-24T01:51:09.400Z,16.50
2023-05-24T01:53:58.230Z,16.47
2023-05-24T01:56:50.207Z,16.47
2023-05-24T01:59:48.032Z,16.46
2023-05-24T02:02:46.189Z,16.46
2023-05-24T02:06:13.828Z,16.45
2023-05-24T02:09:25.437Z,16.46
2023-05-24T02:12:37.473Z,16.48
2023-05-24T02:15:17.715Z,16.50
2023-05-24T02:18:34.003Z,16.50
2023-05-24T02:22:02.306Z,16.49
2023-05-24T02:25:10.533Z,16.48
2023-05-24T02:27:59.433Z,16.44
2023-05-24T02:31:27.544Z,16.39
2023-05-24T02:34:36.173Z,16.36
2023-05-24T02:37:32.985Z,16.31
2023-05-24T02:40:48.504Z,16.23
2023-05-24T02:44:11.869Z,16.18
2023-05-24T02:47:39.764Z,16.12
2023-05-24T02:51:07.519Z,16.03
2023-05-24T02:54:37.664Z,15.98
2023-05-24T02:58:00.699Z,15.91
2023-05-24T03:01:28.542Z,15.82
2023-05-24T03:04:09.870Z,15.77
2023-05-24T03:07:06.045Z,15.71
2023-05-24T03:10:34.337Z,15.66
2023-05-24T03:13:31.659Z,15.62
2023-05-24T03:16:59.530Z,15.58
2023-05-24T03:20:27.514Z,15.59
2023-05-24T03:23:35.818Z,15.60
2023-05-24T03:26:32.047Z,15.60
2023-05-24T03:29:59.727Z,15.60
2023-05-24T03:33:27.602Z,15.60
2023-05-24T03:36:36.559Z,15.58
2023-05-24T03:39:52.102Z,15.60
2023-05-24T03:43:22.688Z,15.63
2023-05-24T03:46:32.260Z,15.69
2023-05-24T03:49:36.930Z,15.74
2023-05-24T03:52:23.214Z,15.79
2023-05-24T03:55:51.088Z,15.84
2023-05-24T03:58:58.814Z,15.88
2023-05-24T04:01:51.746Z,15.87
2023-05-24T04:04:59.740Z,15.90
2023-05-24T04:08:15.713Z,15.92
2023-05-24T04:11:26.223Z,15.92
2023-05-24T04:14:29.858Z,15.91
2023-05-24T04:17:58.264Z,15.93
2023-05-24T04:21:26.350Z,15.92
2023-05-24T04:24:36.476Z,15.96
2023-05-24T04:28:04.380Z,16.03
2023-05-24T04:30:41.774Z,16.08
2023-05-24T04:33:34.328Z,16.14
2023-05-24T04:36:24.360Z,16.25
2023-05-24T04:39:52.426Z,16.40
2023-05-24T04:42:42.277Z,16.50
2023-05-24T04:45:34.215Z,16.62
2023-05-24T04:48:43.508Z,16.73
2023-05-24T04:51:17.440Z,16.80
2023-05-24T04:54:26.940Z,16.86
2023-05-24T04:57:20.615Z,16.81
2023-05-24T05:00:10.138Z,16.65
2023-05-24T05:03:28.216Z,16.56
2023-05-24T05:06:20.913Z,16.53
2023-05-24T05:09:29.550Z,16.47
2023-05-24T05:12:57.212Z,16.52
2023-05-24T05:16:25.625Z,16.55
2023-05-24T05:19:13.683Z,16.56
2023-05-24T05:21:58.749Z,16.63
2023-05-24T05:24:30.951Z,16.73
2023-05-24T05:27:39.553Z,16.84
2023-05-24T05:30:48.152Z,16.92
2023-05-24T05:33:48.016Z,16.89
2023-05-24T05:36:37.116Z,16.84
2023-05-24T05:39:29.250Z,16.67
2023-05-24T05:42:22.312Z,16.47
2023-05-24T05:45:21.125Z,16.25
2023-05-24T05:48:29.292Z,15.86
2023-05-24T05:51:57.076Z,15.58
2023-05-24T05:55:25.360Z,15.39
2023-05-24T05:58:53.853Z,15.26
2023-05-24T06:02:21.933Z,15.16
2023-05-24T06:05:31.252Z,15.12
2023-05-24T06:08:59.226Z,15.14
2023-05-24T06:12:27.279Z,15.14
2023-05-24T06:16:03.820Z,15.19
2023-05-24T06:19:31.912Z,15.24
2023-05-24T06:22:59.957Z,15.26
2023-05-24T06:26:27.819Z,15.30
2023-05-24T06:29:56.107Z,15.39
2023-05-24T06:33:24.147Z,15.49
2023-05-24T06:36:52.430Z,15.58
2023-05-24T06:40:00.422Z,15.64
2023-05-24T06:43:09.149Z,15.70
2023-05-24T06:46:37.876Z,15.81
2023-05-24T06:50:02.271Z,15.89
2023-05-24T06:52:34.404Z,15.94
2023-05-24T06:56:02.743Z,16.00
2023-05-24T06:59:15.092Z,16.13
2023-05-24T07:02:23.254Z,16.30
2023-05-24T07:05:51.240Z,16.49
2023-05-24T07:08:49.357Z,16.66
2023-05-24T07:11:57.364Z,16.87
2023-05-24T07:15:25.510Z,17.07
2023-05-24T07:17:55.548Z,17.19
2023-05-24T07:21:23.463Z,17.36
2023-05-24T07:24:16.605Z,17.46
2023-05-24T07:27:06.734Z,17.57
2023-05-24T07:29:46.297Z,17.70
2023-05-24T07:32:54.291Z,17.83
2023-05-24T07:35:27.066Z,17.97
2023-05-24T07:38:14.987Z,18.12
2023-05-24T07:41:13.628Z,18.24
2023-05-24T07:44:02.013Z,18.33
2023-05-24T07:46:31.193Z,18.37
2023-05-24T07:49:22.242Z,18.36
2023-05-24T07:52:08.737Z,18.42
2023-05-24T07:54:57.880Z,18.52
2023-05-24T07:57:56.049Z,18.53
2023-05-24T08:00:48.345Z,18.58
2023-05-24T08:03:17.425Z,18.63
2023-05-24T08:06:08.142Z,18.66
2023-05-24T08:08:36.465Z,18.66
2023-05-24T08:11:05.748Z,18.70
2023-05-24T08:13:49.632Z,18.71
2023-05-24T08:16:21.605Z,18.71
2023-05-24T08:19:11.820Z,18.70
2023-05-24T08:21:48.580Z,18.74
2023-05-24T08:24:40.533Z,18.74
2023-05-24T08:27:31.589Z,18.77
2023-05-24T08:30:21.078Z,18.82
2023-05-24T08:32:52.267Z,18.84
2023-05-24T08:35:28.751Z,18.84
2023-05-24T08:38:21.016Z,18.80
2023-05-24T08:40:49.297Z,18.76
2023-05-24T08:43:18.375Z,18.74
2023-05-24T08:45:46.991Z,18.74
2023-05-24T08:48:16.083Z,18.83
2023-05-24T08:50:44.158Z,18.87
2023-05-24T08:53:12.656Z,18.95
2023-05-24T08:55:45.210Z,19.04
2023-05-24T08:58:13.884Z,19.13
2023-05-24T09:00:42.143Z,19.25
2023-05-24T09:03:11.718Z,19.38
2023-05-24T09:05:40.913Z,19.48
2023-05-24T09:08:10.285Z,19.56
2023-05-24T09:10:52.806Z,19.59
2023-05-24T09:13:24.001Z,19.65
2023-05-24T09:15:52.925Z,19.73
2023-05-24T09:18:22.033Z,19.81
2023-05-24T09:20:50.433Z,19.96
2023-05-24T09:23:19.500Z,20.14
2023-05-24T09:25:50.246Z,20.29
2023-05-24T09:28:22.764Z,20.42
2023-05-24T09:30:52.086Z,20.61
2023-05-24T09:33:21.296Z,20.81
2023-05-24T09:35:54.404Z,20.92
2023-05-24T09:38:23.103Z,21.05
2023-05-24T09:41:11.244Z,21.17
2023-05-24T09:43:40.677Z,21.25
2023-05-24T09:46:13.315Z,21.30
2023-05-24T09:48:54.271Z,21.37
2023-05-24T09:51:22.765Z,21.42
2023-05-24T09:54:11.156Z,21.47
2023-05-24T09:56:40.825Z,21.52
2023-05-24T09:59:10.984Z,21.63
2023-05-24T10:01:40.842Z,21.72
2023-05-24T10:04:17.980Z,21.84
2023-05-24T10:06:46.453Z,21.96
2023-05-24T10:09:20.278Z,22.08
2023-05-24T10:11:48.666Z,22.10
2023-05-24T10:14:18.236Z,22.06
2023-05-24T10:16:47.215Z,22.03
2023-05-24T10:19:17.327Z,22.11
2023-05-24T10:22:03.135Z,22.28
2023-05-24T10:24:32.408Z,22.32
2023-05-24T10:27:00.908Z,22.24
2023-05-24T10:29:33.205Z,22.24
2023-05-24T10:32:01.954Z,22.20
2023-05-24T10:34:32.273Z,22.23
2023-05-24T10:37:00.655Z,22.16
2023-05-24T10:39:49.649Z,22.36
2023-05-24T10:42:37.682Z,22.73
2023-05-24T10:45:07.099Z,22.89
2023-05-24T10:47:39.043Z,23.01
2023-05-24T10:50:08.051Z,23.11
2023-05-24T10:52:36.653Z,23.34
2023-05-24T10:55:24.973Z,23.50
2023-05-24T10:58:33.914Z,23.49
2023-05-24T11:01:02.660Z,23.61
2023-05-24T11:03:32.353Z,23.74
2023-05-24T11:06:28.550Z,23.74
2023-05-24T11:08:57.833Z,23.86
2023-05-24T11:11:47.822Z,23.92
2023-05-24T11:14:28.648Z,24.01
2023-05-24T11:16:58.666Z,24.09
2023-05-24T11:19:43.377Z,24.19
2023-05-24T11:22:13.735Z,24.32
2023-05-24T11:25:01.787Z,24.41
2023-05-24T11:28:07.700Z,24.55
2023-05-24T11:30:53.314Z,24.57
2023-05-24T11:33:24.074Z,24.65
2023-05-24T11:36:14.188Z,24.64
2023-05-24T11:38:42.841Z,24.70
2023-05-24T11:41:32.930Z,24.90
2023-05-24T11:44:02.245Z,25.15
2023-05-24T11:46:31.203Z,25.24
2023-05-24T11:49:19.310Z,25.29
2023-05-24T11:51:57.080Z,25.38
2023-05-24T11:54:26.049Z,25.48
2023-05-24T11:56:56.094Z,25.48
2023-05-24T11:59:25.307Z,25.51
2023-05-24T12:01:53.017Z,25.64
2023-05-24T12:04:20.989Z,25.79
2023-05-24T12:06:50.680Z,26.09
2023-05-24T12:09:20.081Z,26.28
2023-05-24T12:11:51.720Z,26.43
2023-05-24T12:14:20.868Z,26.60
2023-05-24T12:16:53.039Z,26.83
2023-05-24T12:21:54.117Z,27.15
2023-05-24T12:24:22.828Z,27.23
2023-05-24T12:26:51.233Z,27.44
2023-05-24T12:29:40.094Z,27.78
2023-05-24T12:32:16.229Z,28.11
2023-05-24T12:34:44.799Z,28.23
2023-05-24T12:37:14.027Z,28.53
2023-05-24T12:39:44.661Z,28.81
2023-05-24T12:42:15.907Z,29.05
2023-05-24T12:44:48.080Z,29.22
2023-05-24T12:47:17.053Z,29.52
2023-05-24T12:49:46.278Z,29.56
2023-05-24T12:52:16.070Z,29.54
2023-05-24T12:54:46.065Z,29.61
2023-05-24T12:57:36.402Z,29.74
2023-05-24T13:00:04.053Z,29.77
2023-05-24T13:02:32.975Z,29.87
2023-05-24T13:05:07.374Z,29.97
2023-05-24T13:07:35.798Z,30.04
2023-05-24T13:10:07.181Z,30.27
2023-05-24T13:12:35.137Z,30.50
2023-05-24T13:15:03.050Z,30.79
2023-05-24T13:17:31.053Z,30.87
2023-05-24T13:19:59.295Z,31.28
2023-05-24T13:22:27.562Z,31.16
2023-05-24T13:24:55.222Z,31.26
2023-05-24T13:27:24.273Z,31.62
2023-05-24T13:32:27.590Z,31.99
2023-05-24T13:34:59.226Z,32.08
2023-05-24T13:37:28.197Z,32.36
2023-05-24T13:40:00.644Z,32.52
2023-05-24T13:42:29.430Z,32.84
2023-05-24T13:44:59.245Z,32.68
2023-05-24T13:47:39.215Z,32.71
2023-05-24T13:50:12.016Z,32.84
2023-05-24T13:52:41.421Z,32.85
2023-05-24T13:55:09.201Z,33.10
2023-05-24T13:57:49.752Z,32.91
2023-05-24T14:00:25.397Z,32.95
2023-05-24T14:03:14.004Z,33.06
2023-05-24T14:06:22.176Z,33.37
2023-05-24T14:08:52.438Z,33.32
2023-05-24T14:11:21.079Z,33.06
2023-05-24T14:16:28.707Z,33.12
2023-05-24T14:19:16.562Z,33.28
2023-05-24T14:22:05.393Z,33.37
2023-05-24T14:24:34.365Z,33.46
2023-05-24T14:27:03.976Z,33.76
2023-05-24T14:29:51.832Z,33.81
2023-05-24T14:32:24.322Z,34.05
2023-05-24T14:34:57.832Z,34.12
2023-05-24T14:37:45.808Z,34.49
2023-05-24T14:40:38.394Z,34.39
2023-05-24T14:43:22.596Z,34.31
2023-05-24T14:46:31.595Z,34.61
2023-05-24T14:49:00.966Z,35.00
2023-05-24T14:52:04.835Z,35.36
2023-05-24T14:54:46.266Z,35.13
2023-05-24T14:57:34.625Z,35.32
2023-05-24T15:00:03.238Z,35.14
2023-05-24T15:02:59.394Z,35.15
2023-05-24T15:05:29.569Z,35.44
2023-05-24T15:08:25.882Z,35.05
2023-05-24T15:11:07.656Z,34.21
2023-05-24T15:13:35.968Z,33.68
2023-05-24T15:16:24.805Z,33.60
2023-05-24T15:19:29.371Z,33.33
2023-05-24T15:22:07.222Z,32.49
2023-05-24T15:24:59.188Z,31.62
2023-05-24T15:28:08.950Z,30.78
2023-05-24T15:30:41.806Z,30.21
2023-05-24T15:33:34.621Z,29.57
2023-05-24T15:36:07.303Z,29.08
2023-05-24T15:39:26.336Z,29.43
2023-05-24T15:42:31.853Z,30.54
2023-05-24T15:45:40.600Z,31.55
2023-05-24T15:48:24.959Z,32.21
2023-05-24T15:52:02.595Z,32.66
2023-05-24T15:54:42.398Z,33.28
2023-05-24T15:57:11.234Z,33.52
2023-05-24T15:59:59.534Z,33.79
2023-05-24T16:02:41.923Z,33.95
2023-05-24T16:05:32.213Z,34.25
2023-05-24T16:08:04.264Z,34.63
2023-05-24T16:10:32.580Z,34.80
2023-05-24T16:13:02.582Z,34.86
2023-05-24T16:15:50.761Z,34.72
2023-05-24T16:18:38.708Z,34.76
2023-05-24T16:21:08.654Z,34.70
2023-05-24T16:24:16.843Z,34.63
2023-05-24T16:26:45.961Z,34.36
2023-05-24T16:29:37.082Z,34.40
2023-05-24T16:32:05.414Z,34.33
2023-05-24T16:34:44.849Z,34.30
2023-05-24T16:37:42.258Z,34.47
2023-05-24T16:40:34.369Z,34.40
2023-05-24T16:43:58.880Z,34.32
2023-05-24T16:46:34.558Z,34.09
2023-05-24T16:49:07.917Z,33.67
2023-05-24T16:52:17.685Z,33.52
2023-05-24T16:55:25.033Z,32.95
2023-05-24T16:58:40.501Z,32.20
2023-05-24T17:01:35.584Z,31.58
2023-05-24T17:04:23.736Z,30.96
2023-05-24T17:07:01.067Z,30.33
2023-05-24T17:10:29.006Z,29.51
2023-05-24T17:13:33.218Z,28.85
2023-05-24T17:16:41.194Z,28.10
2023-05-24T17:19:50.977Z,27.43
2023-05-24T17:23:13.582Z,26.84
2023-05-24T17:25:41.959Z,26.44
2023-05-24T17:28:10.149Z,26.07
2023-05-24T17:30:37.920Z,25.78
2023-05-24T17:33:05.865Z,25.47
2023-05-24T17:35:33.496Z,25.17
2023-05-24T17:38:01.917Z,24.90
2023-05-24T17:40:29.566Z,24.68
2023-05-24T17:42:57.615Z,24.50
2023-05-24T17:45:26.879Z,24.35
2023-05-24T17:47:58.163Z,24.17
2023-05-24T17:50:26.887Z,23.97
2023-05-24T17:52:57.689Z,23.77
2023-05-24T17:55:27.060Z,23.58
2023-05-24T17:57:56.363Z,23.36
2023-05-24T18:00:25.252Z,23.16
2023-05-24T18:02:54.075Z,22.98
2023-05-24T18:05:23.554Z,22.82
2023-05-24T18:07:52.975Z,22.64
2023-05-24T18:10:21.579Z,22.48
2023-05-24T18:12:51.041Z,22.35
2023-05-24T18:15:19.675Z,22.23
2023-05-24T18:17:48.202Z,22.15
2023-05-24T18:20:19.964Z,22.07
2023-05-24T18:22:48.478Z,22.00
2023-05-24T18:25:19.184Z,21.95
2023-05-24T18:28:28.282Z,21.87
2023-05-24T18:30:57.372Z,21.81
2023-05-24T18:33:25.228Z,21.73
2023-05-24T18:35:55.406Z,21.66
2023-05-24T18:38:24.224Z,21.59
2023-05-24T18:40:54.516Z,21.56
2023-05-24T18:43:23.739Z,21.54
2023-05-24T18:45:53.566Z,21.52
2023-05-24T18:48:21.345Z,21.48
2023-05-24T18:51:05.333Z,21.45
2023-05-24T18:53:55.431Z,21.41
2023-05-24T18:56:27.868Z,21.36
2023-05-24T18:58:58.425Z,21.33
2023-05-24T19:01:54.870Z,21.26
2023-05-24T19:04:47.285Z,21.23
2023-05-24T19:07:16.274Z,21.17
2023-05-24T19:09:45.986Z,21.17
2023-05-24T19:12:16.225Z,21.14
2023-05-24T19:14:46.546Z,21.08
2023-05-24T19:17:18.694Z,21.11
2023-05-24T19:19:47.991Z,21.13
2023-05-24T19:22:16.996Z,21.08
2023-05-24T19:24:46.485Z,21.04
2023-05-24T19:27:16.688Z,21.02
2023-05-24T19:29:49.086Z,20.96
2023-05-24T19:32:18.011Z,20.95
2023-05-24T19:34:45.994Z,20.98
2023-05-24T19:37:18.478Z,21.00
2023-05-24T19:39:50.554Z,20.99
2023-05-24T19:42:19.218Z,20.97
2023-05-24T19:44:48.443Z,20.97
2023-05-24T19:47:16.917Z,20.99
2023-05-24T19:49:44.694Z,21.00
2023-05-24T19:52:14.129Z,20.96
2023-05-24T19:54:46.252Z,20.95
2023-05-24T19:57:14.875Z,20.94
2023-05-24T19:59:50.753Z,20.89
2023-05-24T20:02:18.657Z,20.81
2023-05-24T20:04:46.697Z,20.81
2023-05-24T20:07:15.170Z,20.84
2023-05-24T20:10:03.971Z,20.86
2023-05-24T20:12:34.725Z,20.86
2023-05-24T20:15:05.692Z,20.87
2023-05-24T20:17:54.928Z,20.76
2023-05-24T20:20:24.844Z,20.59
2023-05-24T20:22:53.671Z,20.49
2023-05-24T20:26:18.447Z,20.33
2023-05-24T20:29:27.754Z,20.20
2023-05-24T20:32:18.442Z,20.13
2023-05-24T20:34:54.316Z,20.05
2023-05-24T20:37:42.975Z,19.95
2023-05-24T20:40:12.640Z,19.87
2023-05-24T20:42:43.321Z,19.84
2023-05-24T20:45:29.580Z,19.90
2023-05-24T20:47:58.917Z,19.94
2023-05-24T20:50:28.422Z,19.97
2023-05-24T20:53:24.249Z,20.00
2023-05-24T20:56:15.124Z,19.99
2023-05-24T20:58:45.958Z,19.98
2023-05-24T21:01:36.686Z,19.97
2023-05-24T21:04:15.140Z,19.98
2023-05-24T21:07:15.268Z,20.00
2023-05-24T21:10:03.461Z,20.00
2023-05-24T21:12:38.576Z,19.99
2023-05-24T21:15:47.434Z,20.03
2023-05-24T21:18:20.365Z,20.03
2023-05-24T21:20:54.997Z,20.05
2023-05-24T21:23:32.565Z,20.02
2023-05-24T21:26:01.186Z,20.00
2023-05-24T21:28:57.484Z,19.95
2023-05-24T21:31:30.564Z,19.91
2023-05-24T21:34:00.557Z,19.88
2023-05-24T21:36:52.893Z,19.82
2023-05-24T21:39:57.549Z,19.78
2023-05-24T21:42:49.310Z,19.75
2023-05-24T21:45:37.700Z,19.70
2023-05-24T21:48:33.684Z,19.67
2023-05-24T21:51:04.092Z,19.62
2023-05-24T21:54:00.866Z,19.56
2023-05-24T21:56:54.572Z,19.52
2023-05-24T21:59:25.204Z,19.50
2023-05-24T22:02:14.835Z,19.50
2023-05-24T22:05:19.179Z,19.49
2023-05-24T22:07:50.107Z,19.51
2023-05-24T22:11:00.775Z,19.49
2023-05-24T22:14:28.817Z,19.43
2023-05-24T22:16:57.618Z,19.40
2023-05-24T22:20:05.368Z,19.36
2023-05-24T22:23:14.569Z,19.34
2023-05-24T22:26:04.452Z,19.29
2023-05-24T22:29:32.373Z,19.13
2023-05-24T22:32:21.026Z,18.94
2023-05-24T22:35:10.405Z,18.81
2023-05-24T22:38:02.726Z,18.74
2023-05-24T22:40:37.531Z,18.72
2023-05-24T22:43:08.283Z,18.71
2023-05-24T22:45:36.909Z,18.64
2023-05-24T22:49:04.990Z,18.59
2023-05-24T22:51:49.894Z,18.58
2023-05-24T22:54:38.343Z,18.54
2023-05-24T22:57:50.015Z,18.42
2023-05-24T23:00:19.199Z,18.34
2023-05-24T23:02:50.234Z,18.26
2023-05-24T23:05:58.305Z,18.22
2023-05-24T23:08:56.007Z,18.26
2023-05-24T23:12:04.603Z,18.31
2023-05-24T23:15:09.124Z,18.35
2023-05-24T23:18:01.056Z,18.41
2023-05-24T23:21:24.569Z,18.45
2023-05-24T23:24:20.340Z,18.50
2023-05-24T23:26:53.801Z,18.46
2023-05-24T23:29:44.703Z,18.38
2023-05-24T23:32:48.824Z,18.36
2023-05-24T23:35:41.240Z,18.33
2023-05-24T23:38:49.374Z,18.26
2023-05-24T23:42:05.824Z,18.11
2023-05-24T23:45:15.319Z,18.00
2023-05-24T23:48:43.274Z,17.90
2023-05-24T23:51:59.354Z,17.81
2023-05-24T23:54:49.436Z,17.76
2023-05-24T23:57:20.180Z,17.76
